Бабино

Карта отелей и гостиниц, располагающихся рядом с аэропортом Бабино :

Бабино Нижегородская область 56° 13' 7.5612" N, 43° 35' 25.1988" E
Бабино Нижегородская область 56° 13' 7.5612" N, 43° 35' 25.1988" E
Код аэродрома ИКАО
UWGI
Код аэродрома RU
УВГИ
Координаты
N56.21877° E043.59033°
Превышение над уровнем моря
78
Основная полоса
03/21
Курс магнитный
028,1/208,1
Длина основной ВПП
700
Ширина основной ВПП
28
Покрытие основной ВПП
Нетвёрдое (грунт)
Освещение ВПП
Нет
Тип: 
Аэродром
Класс аэродрома: 
Принадлежность: 
АОН
Статус: 
Действующий
Сайт: 
www.aerobabino.ru , www.uwgi.ru
E-mail аэродрома: 
Страна: 
Россия
Регион: 
Нижегородская область
Город: 
Дополнительная информация: 
Бывший военный аэродром ВВС РККА, имеет славную боевую историю. Возрожден как ПП АОН в феврале 2009г. Предварительный старт на ГВПП-03/21 занимается с пересечением грунтовой автодороги. Место пересечения РД и автодороги перекрывается двумя шлагбаумами. Имеется большое количество искусственных препятствий (трубы, опоры ЛЭП, башня Шухова).

Найти трансфер

С помощью этой формы Вы можете найти трансфер из аэропорта Бабино в город, аэропорт или вокзал:

Карта места

Javascript is required to view this map.

Погода в аэропортах:

Авиационная погода в Перми

Регион: 
Погода METAR: 
USPP 281300Z 19006MPS 3700 -SN BKN026 M03/M06 Q1015 RESN R21/490242 TEMPO 1000 SN BKN007 RMK QFE751
Время наблюдения
2021-11-28T13:00:00Z
Температура C
-3.0
Точка росы
-6.0
Направление ветра
190
Скорость ветра (узлы)
12
Метео видимость
2.3
Явления погоды
-SN
Условия полета
IFR
Аэропорт подробнее: 

Авиационная погода в Нижнекамске

Регион: 
Погода METAR: 
UWKE 281300Z 23006G11MPS 5000 -SN BLSN BKN009 OVC026 M03/M04 Q1014 R21/450545 NOSIG RMK QFE744/0992
Время наблюдения
2021-11-28T13:00:00Z
Температура C
-3.0
Точка росы
-4.0
Направление ветра
230
Скорость ветра (узлы)
12
Метео видимость
3.11
Явления погоды
-SN BLSN
Условия полета
IFR
Аэропорт подробнее: 

Авиационная погода в Пулково

Регион: 
Погода METAR: 
ULLI 281300Z 04005MPS 3900 -SHSN SCT009 BKN018CB OVC036 M03/M04 Q1002 RESHSN R88/490535 NOSIG
Время наблюдения
2021-11-28T13:00:00Z
Температура C
-3.0
Точка росы
-4.0
Направление ветра
40
Скорость ветра (узлы)
10
Метео видимость
2.42
Явления погоды
-SHSN
Условия полета
IFR
Аэропорт подробнее: 

Авиационная погода в Гродно

Регион: 
Погода METAR: 
UMMG 281100Z 14003MPS 5000 BR SCT020 OVC100 02/M00 Q1000 NOSIG
Время наблюдения
2021-11-28T11:00:00Z
Температура C
2.0
Точка росы
0.0
Направление ветра
140
Скорость ветра (узлы)
6
Метео видимость
3.11
Явления погоды
BR
Условия полета
MVFR
Аэропорт подробнее: